Tuesday, October 16, 2018, 10:49 PM GMT
Back to Local

CYHZ, Halifax International Airport

Location: , , Canada Lat: 44.883
Local Time: 10:49 PM GMT (22:49 GMT) Lon: -63.5
Time Zone: GMT Elev: 475 ft

Show me the last for .
Show Decoded

2018-10-16 22:00 METAR CYHZ 162200Z 26013KT 15SM FEW040 08/01 A2975 RMK SC1 SC TR SLP077 =
2018-10-16 21:00 METAR CYHZ 162100Z 27015G26KT 15SM FEW040 10/01 A2972 RMK SC1 SLP067 =
2018-10-16 20:00 METAR CYHZ 162000Z 28016G24KT 15SM FEW040 11/02 A2969 RMK SC1 SLP057 =
2018-10-16 19:00 METAR CYHZ 161900Z 29016G23KT 15SM FEW040 12/02 A2968 RMK CU1 SLP053 DENSITY ALT
                 500FT =
2018-10-16 18:00 METAR CYHZ 161800Z 30020G31KT 15SM FEW040 11/02 A2965 RMK CU1 CU TR SLP045 =
2018-10-16 17:00 METAR CYHZ 161700Z 28024G33KT 15SM FEW040 11/02 A2963 RMK CU1 CU TR SLP038
                 DENSITY ALT 500FT =
2018-10-16 16:00 METAR CYHZ 161600Z 28024G35KT 15SM FEW040 10/01 A2962 RMK CU1 SLP033 =
2018-10-16 15:00 METAR CYHZ 161500Z 28020G35KT 15SM FEW040 10/01 A2961 RMK CU1 SLP030 =
2018-10-16 14:00 METAR CYHZ 161400Z 29025G36KT 15SM SCT040 09/01 A2959 RMK CU4 SLP023 =
2018-10-16 13:00 METAR CYHZ 161300Z 27024G35KT 15SM FEW030 09/02 A2955 RMK CU1 SLP009 =
2018-10-16 12:00 METAR CYHZ 161200Z 28020G33KT 15SM FEW025 FEW100 10/06 A2953 RMK SC1AC1 SLP003
                 DENSITY ALT 500FT =
2018-10-16 11:27 METAR CYHZ 161127Z 28020G33KT 15SM SCT025 BKN100 10/07 A2950 RMK SC3AC2 PRESRR
                 SLP995 DENSITY ALT 500FT =
2018-10-16 11:00 METAR CYHZ 161100Z 29023G36KT 15SM -RA BKN022 BKN100 13/11 A2948 RMK SC5AC1
                 PRESRR SLP985 DENSITY ALT 900FT =
2018-10-16 10:50 METAR CYHZ 161050Z 28020G33KT 15SM BKN022 BKN100 13/12 A2945 RMK SC5AC2 PRESRR
                 SLP975 DENSITY ALT 1000FT =
2018-10-16 10:00 METAR CYHZ 161000Z 25021G30KT 8SM -RA FEW018 OVC080 15/14 A2942 RMK SC1AC7
                 PRESFR SLP965 DENSITY ALT 1200FT =
2018-10-16 09:46 METAR CYHZ 160946Z 26013G25KT 8SM -RA SCT018 OVC080 15/15 A2943 RMK SC3AC5
                 SLP970 DENSITY ALT 1200FT =
2018-10-16 09:10 METAR CYHZ 160910Z 24017G25KT 4SM RA BR BKN011 OVC025 17/17 A2942 RMK SC5SC3
                 SLP964 DENSITY ALT 1400FT =
2018-10-16 09:00 METAR CYHZ 160900Z 24015G21KT 3SM -RA BR BKN005 OVC010 17/17 A2941 RMK ST6SC2
                 SLP962 DENSITY ALT 1400FT =
2018-10-16 08:00 METAR CYHZ 160800Z 22019G27KT 3SM -RA BR OVC005 17/17 A2944 RMK ST8 PRESFR
                 SLP971 DENSITY ALT 1400FT =
2018-10-16 07:00 METAR CYHZ 160700Z 21020G31KT 4SM -RA BR OVC005 16/16 A2950 RMK ST8 PRESFR
                 SLP993 DENSITY ALT 1200FT =
2018-10-16 06:00 METAR CYHZ 160600Z 19021G31KT 3SM -RA BR BKN005 OVC010 15/15 A2958 RMK ST7SC1
                 /R012/ PRESFR SLP019 DENSITY ALT 1000FT =
2018-10-16 05:00 METAR CYHZ 160500Z 17018G30KT 3SM -RA BR BKN005 OVC010 14/14 A2966 RMK ST6SC2
                 PRESFR SLP047 DENSITY ALT 800FT =
2018-10-16 04:34 METAR CYHZ 160434Z 17017G26KT 2 1/2SM -RA BR BKN005 OVC010 13/13 A2970 RMK
                 ST6SC2 PRESFR SLP060 DENSITY ALT 700FT =
2018-10-16 04:00 METAR CYHZ 160400Z 17016G25KT 3SM -RA BR SCT005 OVC010 12/12 A2976 RMK ST4SC4
                 PRESFR SLP080 DENSITY ALT 500FT =
2018-10-16 03:38 METAR CYHZ 160338Z 17014G19KT 3SM -RA BR SCT005 OVC011 11/11 A2978 RMK SF3SC5
                 PRESFR SLP089 =
2018-10-16 03:00 METAR CYHZ 160300Z 17012G21KT 5SM -RA OVC030 11/11 A2983 RMK SC8 PRESFR SLP103 =
2018-10-16 02:04 METAR CYHZ 160204Z 17014G21KT 15SM -RA FEW011 SCT024 OVC060 11/10 A2989 RMK
                 SC2SC2SC4 PRESFR SLP126 =
2018-10-16 02:00 METAR CYHZ 160200Z 18015G22KT 14SM SCT013 BKN023 OVC060 11/10 A2989 RMK
                 SC3SC4SC1 PRESFR SLP127 =
2018-10-16 01:49 METAR CYHZ 160149Z 18017G24KT 15SM SCT013 OVC022 12/11 A2991 RMK SC3SC5 PRESFR
                 SLP131 =
2018-10-16 01:00 METAR CYHZ 160100Z 18014G19KT 15SM -RA SCT020 OVC038 12/10 A2995 RMK SC4SC4
                 PRESFR SLP146 =
2018-10-16 00:33 METAR CYHZ 160033Z 19011G17KT 15SM -RA BKN019 OVC065 12/10 A2998 RMK SC6NS2
                 SLP158 =
2018-10-16 00:00 METAR CYHZ 160000Z 18011KT 15SM SCT022 OVC085 12/09 A3000 RMK SC4AC4 SLP164 =
2018-10-15 23:00 METAR CYHZ 152300Z 17010G16KT 15SM BKN100 BKN140 11/08 A3003 RMK AC5AC2 SLP174 =

Support USWX by starting your Amazon purchase here.